Albany, Missouri
Current Conditions -  °F | °C
As of 11:53 AM on Friday 21 Nov 2014 (Local Time) from KLWD Reporting Station
Clear Clear  
Wind Chill: -4°   Ceiling: Unl
Heat Index:   Visibility: 10mi
Dew Point: -7°   Wind: 12mph
Humidity: 59%   Direction: 140°SE
Pressure: 30.2"   Gusts: NA
Location:  40.25°N, 94.33°W
Report Text: KLWD 211753Z AUTO 14010KT 10SM CLR 01/M07 A3020 RMK AO2 SLP244 T00061067 10006 21089 58024
Loading
Personal Weather Stations






























Interactive Weather Map New forecast layout! Learn more

10-Day Weather Forecast

Advertisements
Track Severe Weather on mobile